Time;durP1;ratioP1;P1;durP2;ratioP2;P2;SDS_P1;SDS_P2;PMS_P1;PMS_P2;Temp;Humidity;BMP_temperature;BMP_pressure;BME280_temperature;BME280_humidity;BME280_pressure;Samples;Min_cycle;Max_cycle;Signal;HPM_P1;HPM_P2
2023/11/10 00:00:21;;;;;;;3.75;1.20;;;;;;;9.22;100.00;99557.81;5337619;27;20146;-73
2023/11/10 00:02:54;;;;;;;3.80;1.60;;;;;;;9.25;100.00;99544.47;5338634;27;20031;-74
2023/11/10 00:05:26;;;;;;;6.07;1.60;;;;;;;9.30;100.00;99539.56;5340783;27;20026;-73
2023/11/10 00:07:58;;;;;;;5.75;1.50;;;;;;;9.29;100.00;99535.34;5339931;27;20122;-73
2023/11/10 00:10:31;;;;;;;4.00;1.17;;;;;;;9.31;100.00;99538.59;5339640;27;20019;-74
2023/11/10 00:13:03;;;;;;;3.05;1.25;;;;;;;9.34;100.00;99532.25;5337288;27;20027;-74
2023/11/10 00:15:35;;;;;;;4.65;1.20;;;;;;;9.40;100.00;99531.66;5319160;27;20039;-73
2023/11/10 00:18:07;;;;;;;3.00;1.40;;;;;;;9.37;100.00;99522.31;5328818;27;20478;-74
2023/11/10 00:20:41;;;;;;;3.72;0.93;;;;;;;9.41;100.00;99525.44;5338021;27;20130;-73
2023/11/10 00:23:13;;;;;;;2.85;1.15;;;;;;;9.41;100.00;99507.13;5338680;27;20031;-73
2023/11/10 00:25:45;;;;;;;4.70;1.45;;;;;;;9.44;100.00;99510.25;5320751;27;20035;-73
2023/11/10 00:28:17;;;;;;;4.20;1.48;;;;;;;9.48;100.00;99513.38;5338204;27;20038;-73
2023/11/10 00:30:49;;;;;;;4.05;1.20;;;;;;;9.48;100.00;99518.63;5335834;27;20042;-74
2023/11/10 00:33:20;;;;;;;8.20;1.38;;;;;;;9.47;100.00;99516.94;5338499;27;20110;-74
2023/11/10 00:35:52;;;;;;;4.32;1.35;;;;;;;9.46;100.00;99512.72;5339463;27;20110;-74
2023/11/10 00:38:25;;;;;;;3.35;1.20;;;;;;;9.45;100.00;99516.31;5340471;27;20126;-73
2023/11/10 00:40:57;;;;;;;5.20;1.20;;;;;;;9.50;100.00;99517.47;5335879;27;20023;-73
2023/11/10 00:43:29;;;;;;;4.95;1.27;;;;;;;9.52;100.00;99516.50;5338360;27;20031;-75
2023/11/10 00:46:02;;;;;;;6.13;1.80;;;;;;;9.52;100.00;99513.91;5318430;27;20552;-73
2023/11/10 00:48:34;;;;;;;4.60;1.40;;;;;;;9.58;100.00;99523.72;5316882;28;20488;-74
2023/11/10 00:51:06;;;;;;;4.22;1.52;;;;;;;9.56;100.00;99513.41;5317664;27;20293;-73
2023/11/10 00:53:38;;;;;;;4.40;1.30;;;;;;;9.56;100.00;99520.44;5317145;28;20377;-73
2023/11/10 00:56:09;;;;;;;4.80;1.80;;;;;;;9.56;100.00;99523.06;5314456;27;20024;-73
2023/11/10 00:58:41;;;;;;;3.40;1.00;;;;;;;9.53;100.00;99515.53;5316706;28;20139;-73
2023/11/10 01:01:13;;;;;;;3.63;1.30;;;;;;;9.59;100.00;99520.97;5314139;28;20132;-74
2023/11/10 01:03:45;;;;;;;3.35;1.17;;;;;;;9.60;100.00;99513.94;5314083;28;20386;-73
2023/11/10 01:06:17;;;;;;;4.10;1.40;;;;;;;9.50;100.00;99504.38;5316958;28;20031;-73
2023/11/10 01:08:49;;;;;;;5.97;1.50;;;;;;;9.54;100.00;99511.94;5316379;28;20113;-73
2023/11/10 01:11:22;;;;;;;3.15;1.20;;;;;;;9.58;100.00;99518.47;5322868;27;20020;-73
2023/11/10 01:13:54;;;;;;;5.65;1.35;;;;;;;9.62;100.00;99514.56;5337534;27;20038;-74
2023/11/10 01:16:28;;;;;;;4.00;1.80;;;;;;;9.63;100.00;99511.81;5337763;27;20023;-73
2023/11/10 01:19:00;;;;;;;4.18;1.50;;;;;;;9.62;100.00;99498.88;5336182;27;20023;-74
2023/11/10 01:21:32;;;;;;;5.40;1.25;;;;;;;9.64;100.00;99497.75;5336841;27;20028;-73
2023/11/10 01:24:04;;;;;;;5.93;1.20;;;;;;;9.65;100.00;99502.00;5330500;27;20088;-73
2023/11/10 01:26:36;;;;;;;3.90;1.38;;;;;;;9.66;100.00;99503.66;5338248;27;20027;-73
2023/11/10 01:29:08;;;;;;;3.63;1.60;;;;;;;9.69;100.00;99499.91;5337318;27;20418;-74
2023/11/10 01:31:41;;;;;;;6.43;1.83;;;;;;;9.68;100.00;99499.09;5335598;27;20045;-73
2023/11/10 01:34:12;;;;;;;4.03;1.13;;;;;;;9.71;100.00;99514.47;5335027;27;20019;-74
2023/11/10 01:36:45;;;;;;;3.53;1.15;;;;;;;9.70;100.00;99509.41;5335866;27;20030;-74
2023/11/10 01:39:16;;;;;;;4.78;1.58;;;;;;;9.69;100.00;99505.94;5330107;27;20122;-74
2023/11/10 01:41:48;;;;;;;5.38;1.38;;;;;;;9.71;100.00;99497.97;5334118;27;20116;-74
2023/11/10 01:44:20;;;;;;;3.88;1.20;;;;;;;9.74;100.00;99492.44;5336839;27;20033;-73
2023/11/10 01:46:52;;;;;;;3.65;1.35;;;;;;;9.73;100.00;99496.00;5337714;27;20034;-73
2023/11/10 01:49:24;;;;;;;4.57;1.33;;;;;;;9.67;100.00;99486.19;5336818;27;20039;-74
2023/11/10 01:51:56;;;;;;;4.28;1.30;;;;;;;9.72;100.00;99484.72;5336785;27;20039;-74
2023/11/10 01:54:34;;;;;;;3.35;1.35;;;;;;;9.77;100.00;99492.09;5335427;27;20034;-73
2023/11/10 01:57:09;;;;;;;5.70;1.40;;;;;;;9.73;100.00;99480.31;5335496;27;20035;-74
2023/11/10 01:59:45;;;;;;;4.30;1.15;;;;;;;9.77;100.00;99476.38;5335757;27;20392;-73
2023/11/10 02:02:17;;;;;;;3.25;1.50;;;;;;;9.74;100.00;99487.19;5336412;27;20037;-73
2023/11/10 02:04:50;;;;;;;4.70;1.30;;;;;;;9.74;100.00;99487.19;5337575;27;20030;-73
2023/11/10 02:07:22;;;;;;;4.93;1.40;;;;;;;9.77;100.00;99488.66;5325226;27;20433;-73
2023/11/10 02:09:54;;;;;;;3.22;1.20;;;;;;;9.68;100.00;99477.34;5314059;28;20126;-73
2023/11/10 02:12:26;;;;;;;4.05;1.30;;;;;;;9.73;100.00;99477.69;5313774;27;20061;-73
2023/11/10 02:14:58;;;;;;;3.67;1.10;;;;;;;9.67;100.00;99478.34;5313291;28;20465;-73
2023/11/10 02:17:30;;;;;;;5.05;1.48;;;;;;;9.72;100.00;99483.91;5309998;28;20392;-73
2023/11/10 02:20:02;;;;;;;4.28;1.30;;;;;;;9.66;100.00;99476.69;5312014;28;20103;-73
2023/11/10 02:22:34;;;;;;;4.72;1.60;;;;;;;9.73;100.00;99478.50;5315331;28;20026;-73
2023/11/10 02:25:16;;;;;;;2.30;1.10;;;;;;;9.84;100.00;99474.78;5313062;28;20031;-73
2023/11/10 02:27:50;;;;;;;1.98;1.10;;;;;;;9.65;100.00;99483.72;5313647;28;20031;-73
2023/11/10 02:30:22;;;;;;;4.60;1.30;;;;;;;9.62;100.00;99484.03;5315709;28;20032;-73
2023/11/10 02:32:54;;;;;;;2.83;1.20;;;;;;;9.59;100.00;99479.13;5313750;28;20067;-73
2023/11/10 02:35:26;;;;;;;3.70;1.08;;;;;;;9.59;100.00;99488.78;5331937;27;20106;-73
2023/11/10 02:37:58;;;;;;;3.53;0.97;;;;;;;9.61;100.00;99487.63;5338081;27;20051;-73
2023/11/10 02:40:32;;;;;;;3.65;1.23;;;;;;;9.59;100.00;99480.94;5336788;27;20090;-73
2023/11/10 02:43:06;;;;;;;2.22;0.90;;;;;;;9.61;100.00;99486.78;5336522;27;20041;-73
2023/11/10 02:45:37;;;;;;;2.33;0.90;;;;;;;9.62;100.00;99485.81;5337973;28;20027;-73
2023/11/10 02:48:09;;;;;;;2.55;0.90;;;;;;;9.53;100.00;99492.81;5336499;28;20046;-73
2023/11/10 02:50:43;;;;;;;4.20;0.75;;;;;;;9.54;100.00;99485.78;5335911;28;20019;-73
2023/11/10 02:53:15;;;;;;;2.65;0.90;;;;;;;9.56;100.00;99492.50;5333913;28;20057;-73
2023/11/10 02:55:47;;;;;;;2.67;0.90;;;;;;;9.54;100.00;99493.63;5336588;28;20027;-73
2023/11/10 02:58:19;;;;;;;2.90;0.82;;;;;;;9.55;100.00;99492.69;5333684;28;20037;-73
2023/11/10 03:00:55;;;;;;;3.58;0.90;;;;;;;9.55;100.00;99497.91;5314581;28;20507;-73
2023/11/10 03:03:27;;;;;;;5.13;1.10;;;;;;;9.55;100.00;99484.84;5315382;28;20122;-73
2023/11/10 03:05:59;;;;;;;2.40;0.90;;;;;;;9.56;100.00;99494.31;5312261;28;20047;-73
2023/11/10 03:08:32;;;;;;;1.85;0.85;;;;;;;9.60;100.00;99493.00;5314966;28;20027;-73
2023/11/10 03:11:04;;;;;;;3.10;0.90;;;;;;;9.53;100.00;99479.75;5315599;28;20396;-73
2023/11/10 03:13:35;;;;;;;3.45;1.13;;;;;;;9.52;100.00;99477.28;5317834;28;20106;-73
2023/11/10 03:16:09;;;;;;;2.05;0.90;;;;;;;9.52;100.00;99488.56;5319511;28;20031;-73
2023/11/10 03:18:41;;;;;;;3.63;1.00;;;;;;;9.51;100.00;99484.31;5317234;28;20023;-73
2023/11/10 03:21:17;;;;;;;2.80;0.77;;;;;;;9.55;100.00;99483.03;5319225;28;20107;-73
2023/11/10 03:23:50;;;;;;;4.15;1.10;;;;;;;9.48;100.00;99482.00;5319683;28;20019;-73
2023/11/10 03:26:22;;;;;;;2.67;0.95;;;;;;;9.48;100.00;99482.00;5316916;28;20019;-73
2023/11/10 03:28:54;;;;;;;2.85;1.05;;;;;;;9.42;100.00;99478.22;5336535;27;20033;-73
2023/11/10 03:31:29;;;;;;;4.57;1.20;;;;;;;9.52;100.00;99483.34;5339874;27;20064;-73
2023/11/10 03:34:01;;;;;;;3.15;1.35;;;;;;;9.46;100.00;99486.56;5339166;27;20027;-73
2023/11/10 03:36:34;;;;;;;4.38;1.08;;;;;;;9.41;100.00;99484.44;5339732;27;20072;-73
2023/11/10 03:39:06;;;;;;;4.32;1.30;;;;;;;9.39;100.00;99483.75;5337933;27;20531;-73
2023/11/10 03:41:38;;;;;;;3.47;1.42;;;;;;;9.38;100.00;99486.53;5339025;27;20015;-73
2023/11/10 03:44:10;;;;;;;2.80;0.90;;;;;;;9.38;100.00;99481.31;5339173;27;20647;-72
2023/11/10 03:46:41;;;;;;;8.07;1.77;;;;;;;9.37;100.00;99470.03;5341079;27;20118;-73
2023/11/10 03:49:13;;;;;;;3.50;1.15;;;;;;;9.37;100.00;99477.88;5338899;27;20027;-73
2023/11/10 03:51:46;;;;;;;2.95;0.90;;;;;;;9.39;100.00;99478.53;5341427;27;20118;-73
2023/11/10 03:54:18;;;;;;;2.63;1.05;;;;;;;9.38;100.00;99476.88;5330926;27;20034;-73
2023/11/10 03:56:50;;;;;;;3.83;0.95;;;;;;;9.36;100.00;99470.19;5319218;28;20031;-73
2023/11/10 03:59:22;;;;;;;3.80;1.13;;;;;;;9.36;100.00;99480.66;5320194;28;20400;-73
2023/11/10 04:01:54;;;;;;;3.42;1.05;;;;;;;9.30;100.00;99489.09;5315790;28;20070;-73
2023/11/10 04:04:26;;;;;;;3.30;0.82;;;;;;;9.27;100.00;99482.38;5314744;28;20098;-73
2023/11/10 04:06:58;;;;;;;3.45;0.95;;;;;;;9.26;100.00;99486.78;5317879;28;20042;-73
2023/11/10 04:09:33;;;;;;;2.72;0.90;;;;;;;9.20;100.00;99483.97;5335599;27;20395;-73
2023/11/10 04:12:06;;;;;;;2.25;0.90;;;;;;;9.16;100.00;99485.25;5337138;27;20035;-73
2023/11/10 04:14:40;;;;;;;3.10;0.93;;;;;;;9.20;100.00;99486.59;5339352;27;20030;-73
2023/11/10 04:17:12;;;;;;;3.70;0.90;;;;;;;9.08;100.00;99478.19;5338177;27;20098;-73
2023/11/10 04:19:43;;;;;;;3.72;1.10;;;;;;;9.10;100.00;99494.53;5339480;27;20103;-73
2023/11/10 04:22:15;;;;;;;4.47;1.20;;;;;;;9.08;100.00;99490.44;5330946;27;20029;-73
2023/11/10 04:24:47;;;;;;;2.45;1.00;;;;;;;9.09;100.00;99497.28;5339705;27;20035;-73
2023/11/10 04:27:19;;;;;;;2.80;0.95;;;;;;;9.07;100.00;99499.25;5337635;27;20023;-73
2023/11/10 04:29:51;;;;;;;2.15;0.82;;;;;;;9.05;100.00;99495.97;5339980;27;20439;-73
2023/11/10 04:32:23;;;;;;;4.88;1.33;;;;;;;9.05;100.00;99501.19;5337632;27;20035;-73
2023/11/10 04:34:55;;;;;;;4.60;1.23;;;;;;;9.00;100.00;99489.41;5318694;27;20126;-73
2023/11/10 04:37:27;;;;;;;4.40;0.90;;;;;;;8.97;100.00;99483.66;5338000;27;20099;-73
2023/11/10 04:40:00;;;;;;;2.20;1.00;;;;;;;8.97;100.00;99489.72;5336523;27;20027;-73
2023/11/10 04:42:32;;;;;;;2.85;1.00;;;;;;;8.97;100.00;99494.13;5335669;27;20412;-74
2023/11/10 04:45:04;;;;;;;2.78;0.98;;;;;;;8.93;100.00;99488.38;5336555;27;20106;-73
2023/11/10 04:47:36;;;;;;;4.13;1.15;;;;;;;8.97;100.00;99494.94;5338471;27;20523;-74
2023/11/10 04:50:08;;;;;;;4.88;1.20;;;;;;;8.94;100.00;99491.81;5329995;27;20114;-73
2023/11/10 04:52:41;;;;;;;4.57;1.00;;;;;;;8.91;100.00;99489.53;5337066;27;20031;-73
2023/11/10 04:55:14;;;;;;;3.35;1.00;;;;;;;8.89;100.00;99496.69;5336322;27;20116;-74
2023/11/10 04:57:46;;;;;;;4.07;1.43;;;;;;;8.91;100.00;99492.94;5317080;27;20027;-73
2023/11/10 05:00:19;;;;;;;4.45;1.17;;;;;;;8.92;100.00;99491.16;5340217;27;20130;-74
2023/11/10 05:02:53;;;;;;;3.42;1.42;;;;;;;8.87;100.00;99482.97;5337278;27;20042;-73
2023/11/10 05:05:25;;;;;;;2.85;1.10;;;;;;;8.84;100.00;99489.31;5338628;27;20535;-73
2023/11/10 05:07:57;;;;;;;5.53;1.17;;;;;;;8.79;100.00;99483.72;5337283;27;20034;-74
2023/11/10 05:10:29;;;;;;;3.08;1.10;;;;;;;8.72;100.00;99482.69;5338665;27;20426;-73
2023/11/10 05:13:01;;;;;;;3.47;1.20;;;;;;;8.82;100.00;99482.59;5336551;27;20031;-73
2023/11/10 05:15:33;;;;;;;6.40;1.40;;;;;;;8.76;100.00;99491.84;5329420;27;20054;-74
2023/11/10 05:18:07;;;;;;;3.40;1.10;;;;;;;8.72;100.00;99493.94;5325815;27;20023;-73
2023/11/10 05:20:39;;;;;;;;;;;;;;;9.41;100.00;99492.28;5340504;27;20030;-73
2023/11/10 05:23:13;;;;;;;5.38;1.33;;;;;;;8.78;100.00;99490.72;5338357;27;19911;-73
2023/11/10 05:25:45;;;;;;;3.85;1.23;;;;;;;8.73;100.00;99492.16;5318823;27;20039;-74
2023/11/10 05:28:16;;;;;;;2.88;1.00;;;;;;;8.72;100.00;99493.94;5337389;27;20933;-73
2023/11/10 05:30:48;;;;;;;3.55;1.20;;;;;;;8.69;100.00;99488.22;5333363;27;20028;-74
2023/11/10 05:33:22;;;;;;;5.82;1.85;;;;;;;8.67;100.00;99492.75;5337298;27;20031;-73
2023/11/10 05:35:53;;;;;;;;;;;;;;;9.32;100.00;99490.59;5336747;27;20027;-73
2023/11/10 05:38:25;;;;;;;4.30;1.05;;;;;;;8.69;100.00;99498.66;5337520;27;19916;-73
2023/11/10 05:40:57;;;;;;;4.60;1.23;;;;;;;8.59;100.00;99485.66;5336932;27;20015;-73
2023/11/10 05:43:29;;;;;;;4.63;1.17;;;;;;;8.58;100.00;99498.88;5329132;27;20035;-74
2023/11/10 05:46:01;;;;;;;3.72;1.05;;;;;;;8.54;100.00;99498.38;5335645;27;20042;-73
2023/11/10 05:48:33;;;;;;;6.60;1.30;;;;;;;8.50;100.00;99500.44;5338093;27;20015;-73
2023/11/10 05:51:05;;;;;;;4.32;1.33;;;;;;;8.47;100.00;99492.09;5338956;27;20461;-73
2023/11/10 05:53:37;;;;;;;3.95;1.15;;;;;;;8.52;100.00;99511.56;5340127;27;20539;-73
2023/11/10 05:56:09;;;;;;;4.75;1.85;;;;;;;8.46;100.00;99493.06;5339339;27;20560;-73
2023/11/10 05:58:41;;;;;;;5.37;1.33;;;;;;;8.43;100.00;99498.59;5335742;27;20029;-73
2023/11/10 06:01:20;;;;;;;5.57;1.40;;;;;;;8.42;100.00;99500.38;5337190;27;20285;-74
2023/11/10 06:03:53;;;;;;;2.63;0.90;;;;;;;8.41;100.00;99506.59;5337033;27;20034;-74
2023/11/10 06:06:27;;;;;;;3.85;1.05;;;;;;;8.49;100.00;99508.44;5334060;27;20027;-73
2023/11/10 06:08:59;;;;;;;3.30;1.00;;;;;;;8.33;100.00;99495.19;5332422;27;20032;-74
2023/11/10 06:11:31;;;;;;;3.63;1.10;;;;;;;8.34;100.00;99510.72;5330601;27;20477;-73
2023/11/10 06:14:03;;;;;;;4.18;0.95;;;;;;;8.37;100.00;99514.78;5326792;27;20031;-73
2023/11/10 06:16:34;;;;;;;2.72;1.10;;;;;;;8.38;100.00;99509.47;5331547;27;20093;-73
2023/11/10 06:19:07;;;;;;;2.78;1.00;;;;;;;8.41;100.00;99517.03;5336475;27;20030;-73
2023/11/10 06:21:39;;;;;;;4.03;1.33;;;;;;;8.44;100.00;99514.09;5335391;27;20504;-74
2023/11/10 06:24:11;;;;;;;3.45;1.20;;;;;;;8.39;100.00;99518.13;5333629;27;20026;-74
2023/11/10 06:26:42;;;;;;;4.53;1.15;;;;;;;8.40;100.00;99506.72;5335449;27;20106;-73
2023/11/10 06:29:14;;;;;;;2.33;0.88;;;;;;;8.40;100.00;99511.94;5330307;27;20035;-74
2023/11/10 06:31:47;;;;;;;4.95;1.15;;;;;;;8.41;100.00;99519.63;5323604;27;20043;-73
2023/11/10 06:34:21;;;;;;;5.20;1.45;;;;;;;8.41;100.00;99506.59;5303754;28;20039;-73
2023/11/10 06:36:53;;;;;;;4.25;1.30;;;;;;;8.38;100.00;99514.69;5330826;27;20042;-74
2023/11/10 06:39:25;;;;;;;4.70;1.40;;;;;;;8.37;100.00;99513.06;5325642;27;20027;-73
2023/11/10 06:41:58;;;;;;;2.53;0.93;;;;;;;8.36;100.00;99529.63;5334100;27;20118;-74
2023/11/10 06:44:30;;;;;;;;;;;;;;;9.05;100.00;99524.69;5332742;27;20019;-74
2023/11/10 06:47:02;;;;;;;3.08;1.23;;;;;;;8.41;100.00;99532.69;5333437;27;19946;-74
2023/11/10 06:49:34;;;;;;;2.60;0.98;;;;;;;8.35;100.00;99528.00;5333651;28;20028;-74
2023/11/10 06:52:06;;;;;;;3.53;1.20;;;;;;;8.32;100.00;99523.06;5331556;28;20034;-74
2023/11/10 06:54:38;;;;;;;4.07;1.25;;;;;;;8.36;100.00;99526.22;5331930;28;20027;-74
2023/11/10 06:57:11;;;;;;;4.23;1.20;;;;;;;8.37;100.00;99528.72;5329015;28;20468;-74
2023/11/10 06:59:43;;;;;;;4.70;1.63;;;;;;;8.40;100.00;99527.59;5330017;28;20277;-74
2023/11/10 07:02:16;;;;;;;4.63;1.60;;;;;;;8.38;100.00;99517.31;5306199;28;20401;-74
2023/11/10 07:04:48;;;;;;;5.97;1.13;;;;;;;8.45;100.00;99520.97;5332334;28;20411;-74
2023/11/10 07:07:19;;;;;;;4.40;1.65;;;;;;;8.47;100.00;99518.19;5332834;28;20027;-74
2023/11/10 07:09:52;;;;;;;6.30;1.73;;;;;;;8.50;100.00;99518.72;5333927;27;20035;-74
2023/11/10 07:12:24;;;;;;;2.75;1.30;;;;;;;8.55;100.00;99520.06;5331654;28;20031;-74
2023/11/10 07:14:57;;;;;;;6.38;1.55;;;;;;;8.53;100.00;99513.22;5334395;28;20031;-74
2023/11/10 07:17:28;;;;;;;4.20;1.80;;;;;;;8.54;100.00;99516.63;5331268;28;20031;-73
2023/11/10 07:20:00;;;;;;;5.60;1.38;;;;;;;8.57;100.00;99508.50;5334302;28;20030;-74
2023/11/10 07:22:32;;;;;;;4.05;1.30;;;;;;;8.59;100.00;99503.13;5333138;28;20022;-74
2023/11/10 07:25:06;;;;;;;4.13;1.63;;;;;;;8.60;100.00;99520.41;5331647;28;20488;-74
2023/11/10 07:27:38;;;;;;;7.25;1.42;;;;;;;8.64;100.00;99514.78;5335042;28;20023;-74
2023/11/10 07:30:10;;;;;;;5.45;1.60;;;;;;;8.65;100.00;99518.19;5328010;28;20034;-74
2023/11/10 07:32:43;;;;;;;4.18;1.33;;;;;;;8.68;100.00;99521.34;5328342;28;20031;-74
2023/11/10 07:35:16;;;;;;;5.15;1.08;;;;;;;8.69;100.00;99519.53;5331943;28;20034;-74
2023/11/10 07:37:48;;;;;;;4.97;1.70;;;;;;;8.74;100.00;99520.72;5332854;28;20042;-74
2023/11/10 07:40:20;;;;;;;4.28;1.20;;;;;;;8.77;100.00;99515.19;5333029;28;20043;-74
2023/11/10 07:42:52;;;;;;;7.05;1.88;;;;;;;8.82;100.00;99519.16;5333146;28;20034;-74
2023/11/10 07:45:24;;;;;;;4.57;1.67;;;;;;;8.83;100.00;99515.59;5334619;28;20042;-74
2023/11/10 07:47:56;;;;;;;4.28;1.75;;;;;;;8.82;100.00;99516.53;5330578;28;20220;-74
2023/11/10 07:50:28;;;;;;;4.28;1.33;;;;;;;8.82;100.00;99504.28;5331854;27;20034;-74
2023/11/10 07:52:59;;;;;;;4.75;1.30;;;;;;;8.87;100.00;99504.69;5330193;28;20039;-74
2023/11/10 07:55:31;;;;;;;5.43;1.50;;;;;;;8.92;100.00;99505.03;5331382;28;20031;-73
2023/11/10 07:58:04;;;;;;;6.53;1.58;;;;;;;8.94;100.00;99502.25;5326647;27;20041;-73
2023/11/10 08:00:36;;;;;;;5.53;1.45;;;;;;;8.99;100.00;99502.63;5313374;28;20538;-74
2023/11/10 08:03:08;;;;;;;6.38;1.60;;;;;;;8.99;100.00;99508.66;5312470;28;20037;-74
2023/11/10 08:05:41;;;;;;;4.75;1.83;;;;;;;8.98;100.00;99498.41;5310089;28;20035;-77
2023/11/10 08:08:13;;;;;;;6.88;1.70;;;;;;;9.04;100.00;99502.16;5307866;28;20484;-76
2023/11/10 08:10:45;;;;;;;5.88;1.60;;;;;;;9.04;100.00;99504.78;5288656;28;20401;-74
2023/11/10 08:13:16;;;;;;;9.45;1.73;;;;;;;9.09;100.00;99507.75;5313023;28;20443;-74
2023/11/10 08:15:48;;;;;;;5.65;1.30;;;;;;;9.13;100.00;99502.09;5311073;28;20589;-74
2023/11/10 08:18:21;;;;;;;6.07;1.63;;;;;;;9.10;100.00;99496.34;5324888;27;20369;-73
2023/11/10 08:20:53;;;;;;;5.37;1.63;;;;;;;9.17;100.00;99497.38;5334954;27;20065;-73
2023/11/10 08:23:25;;;;;;;6.43;1.83;;;;;;;9.25;100.00;99507.88;5332697;27;20480;-75
2023/11/10 08:25:57;;;;;;;6.57;1.60;;;;;;;9.25;100.00;99502.63;5318776;27;20057;-74
2023/11/10 08:28:29;;;;;;;6.30;1.63;;;;;;;9.25;100.00;99495.63;5311680;28;20050;-73
2023/11/10 08:31:01;;;;;;;4.65;1.25;;;;;;;9.27;100.00;99493.66;5310289;28;20042;-73
2023/11/10 08:33:33;;;;;;;7.25;1.77;;;;;;;9.31;100.00;99496.78;5310637;28;20393;-73
2023/11/10 08:36:05;;;;;;;7.88;1.73;;;;;;;9.42;100.00;99501.75;5315190;28;20034;-74
2023/11/10 08:38:37;;;;;;;5.25;1.63;;;;;;;9.42;100.00;99499.13;5312497;28;20042;-73
2023/11/10 08:41:12;;;;;;;9.32;1.88;;;;;;;9.47;100.00;99491.66;5312010;28;20024;-76
2023/11/10 08:43:46;;;;;;;10.75;2.45;;;;;;;9.48;100.00;99497.69;5312152;28;20048;-76
2023/11/10 08:46:18;;;;;;;6.82;2.00;;;;;;;9.53;100.00;99489.38;5308624;28;20036;-76
2023/11/10 08:48:51;;;;;;;7.45;1.70;;;;;;;9.57;100.00;99488.91;5309900;28;20032;-75
2023/11/10 08:51:23;;;;;;;9.20;2.22;;;;;;;9.57;100.00;99488.09;5312810;28;20039;-76
2023/11/10 08:53:57;;;;;;;5.67;1.60;;;;;;;9.65;100.00;99494.16;5310943;28;20086;-74
2023/11/10 08:56:28;;;;;;;;;;;;;;;10.31;100.00;99489.97;5308350;28;20062;-75
2023/11/10 08:59:01;;;;;;;10.02;2.22;;;;;;;9.75;100.00;99494.06;5309817;28;19915;-73
2023/11/10 09:01:33;;;;;;;8.20;1.90;;;;;;;9.74;100.00;99495.03;5312113;27;20035;-74
2023/11/10 09:04:05;;;;;;;4.28;1.45;;;;;;;9.69;100.00;99495.47;5315448;28;20769;-74
2023/11/10 09:06:36;;;;;;;8.63;1.85;;;;;;;9.73;100.00;99494.19;5312952;28;20397;-75
2023/11/10 09:09:09;;;;;;;7.97;1.83;;;;;;;9.70;100.00;99501.56;5312668;28;20027;-74
2023/11/10 09:11:41;;;;;;;8.80;1.60;;;;;;;9.75;100.00;99487.03;5310878;28;20032;-76
2023/11/10 09:14:13;;;;;;;8.18;1.80;;;;;;;9.71;100.00;99493.53;5310855;28;20042;-73
2023/11/10 09:16:45;;;;;;;7.40;1.67;;;;;;;9.77;100.00;99492.09;5292405;28;20386;-74
2023/11/10 09:19:17;;;;;;;9.10;2.15;;;;;;;9.74;100.00;99493.25;5316322;27;20058;-75
2023/11/10 09:21:49;;;;;;;7.97;2.13;;;;;;;9.82;100.00;99494.25;5334628;27;20031;-73
2023/11/10 09:24:21;;;;;;;7.63;1.80;;;;;;;9.89;100.00;99500.50;5333738;27;20477;-74
2023/11/10 09:26:53;;;;;;;8.23;1.75;;;;;;;9.91;100.00;99490.66;5330365;27;20068;-73
2023/11/10 09:29:25;;;;;;;9.43;2.20;;;;;;;9.99;100.00;99499.34;5335714;27;20037;-73
2023/11/10 09:31:57;;;;;;;8.75;1.88;;;;;;;10.01;100.00;99495.78;5333048;27;20046;-73
2023/11/10 09:34:29;;;;;;;6.20;1.88;;;;;;;10.03;100.00;99494.63;5331199;27;20035;-74
2023/11/10 09:37:00;;;;;;;6.95;1.85;;;;;;;9.97;100.00;99488.25;5329887;27;20027;-73
2023/11/10 09:39:33;;;;;;;7.50;1.90;;;;;;;9.92;100.00;99487.06;5333353;27;20037;-73
2023/11/10 09:42:08;;;;;;;7.70;1.47;;;;;;;9.92;100.00;99485.25;5331783;27;20019;-74
2023/11/10 09:44:48;;;;;;;8.13;1.77;;;;;;;10.01;100.00;99487.94;5330350;27;20023;-75
2023/11/10 09:47:22;;;;;;;6.82;1.65;;;;;;;9.90;100.00;99487.25;5321351;27;20051;-75
2023/11/10 09:49:56;;;;;;;5.85;1.85;;;;;;;9.92;100.00;99482.66;5326113;27;20048;-74
2023/11/10 09:52:33;;;;;;;4.88;1.50;;;;;;;9.92;100.00;99484.44;5335027;27;20461;-73
2023/11/10 09:55:06;;;;;;;6.40;1.60;;;;;;;9.86;100.00;99480.69;5334093;27;20053;-74
2023/11/10 09:57:39;;;;;;;6.68;1.55;;;;;;;9.88;100.00;99475.28;5333195;27;20693;-73
2023/11/10 10:00:13;;;;;;;4.00;1.30;;;;;;;9.91;100.00;99483.63;5334503;27;20481;-73
2023/11/10 10:02:44;;;;;;;5.07;1.40;;;;;;;9.83;100.00;99469.72;5335947;27;20035;-73
2023/11/10 10:05:17;;;;;;;7.43;1.48;;;;;;;9.83;100.00;99474.94;5335843;27;20474;-73
2023/11/10 10:07:49;;;;;;;4.20;1.23;;;;;;;9.83;100.00;99474.94;5334718;27;20039;-76
2023/11/10 10:10:22;;;;;;;5.32;1.40;;;;;;;9.78;100.00;99485.09;5333790;27;20503;-74
2023/11/10 10:12:54;;;;;;;5.15;1.67;;;;;;;9.74;100.00;99479.34;5330146;27;20027;-75
2023/11/10 10:15:29;;;;;;;8.57;2.13;;;;;;;9.74;100.00;99476.72;5323920;27;20550;-73
2023/11/10 10:18:05;;;;;;;6.18;1.58;;;;;;;9.85;100.00;99472.97;5312753;28;20405;-72
2023/11/10 10:20:40;;;;;;;4.50;1.38;;;;;;;9.69;100.00;99468.53;5311167;28;20039;-72
2023/11/10 10:23:14;;;;;;;6.32;1.60;;;;;;;9.71;100.00;99485.69;5311499;28;20042;-72
2023/11/10 10:25:46;;;;;;;4.55;1.50;;;;;;;9.68;100.00;99470.31;5313227;28;20043;-72
2023/11/10 10:28:18;;;;;;;6.57;1.60;;;;;;;9.64;100.00;99471.63;5311938;28;20019;-72
2023/11/10 10:30:51;;;;;;;4.72;1.60;;;;;;;9.65;100.00;99464.59;5310422;28;20487;-72
2023/11/10 10:33:22;;;;;;;4.03;1.40;;;;;;;9.70;100.00;99470.19;5310946;28;20031;-73
2023/11/10 10:35:55;;;;;;;6.13;1.20;;;;;;;9.64;100.00;99463.78;5313186;28;20399;-73
2023/11/10 10:38:31;;;;;;;5.68;1.90;;;;;;;9.77;100.00;99463.31;5314153;28;20031;-72
2023/11/10 10:41:05;;;;;;;6.25;1.20;;;;;;;9.71;100.00;99469.19;5309684;28;20031;-72
2023/11/10 10:43:37;;;;;;;;;;;;;;;10.33;100.00;99458.41;5320776;28;20027;-74
2023/11/10 10:46:10;;;;;;;3.60;1.30;;;;;;;9.86;100.00;99465.00;5315917;27;19950;-72
2023/11/10 10:48:43;;;;;;;4.22;1.13;;;;;;;9.83;100.00;99464.50;5333337;27;20023;-72
2023/11/10 10:51:17;;;;;;;7.20;1.52;;;;;;;9.88;100.00;99452.56;5331257;27;20027;-73
2023/11/10 10:53:49;;;;;;;4.18;1.30;;;;;;;9.92;100.00;99463.53;5332799;28;20030;-71
2023/11/10 10:56:23;;;;;;;4.28;1.38;;;;;;;9.96;100.00;99467.44;5329371;28;20045;-73
2023/11/10 10:58:55;;;;;;;4.53;1.40;;;;;;;9.99;100.00;99467.94;5328328;28;20035;-72
2023/11/10 11:01:27;;;;;;;6.20;1.27;;;;;;;10.03;100.00;99462.41;5332507;28;20524;-72
2023/11/10 11:04:25;;;;;;;5.43;1.30;;;;;;;10.34;100.00;99453.00;5333755;28;20804;-72
2023/11/10 11:07:28;;;;;;;7.40;1.60;;;;;;;10.37;100.00;99468.38;5326256;28;20098;-73
2023/11/10 11:10:20;;;;;;;5.65;1.98;;;;;;;10.27;100.00;99454.66;5328722;28;20421;-72
2023/11/10 11:13:41;;;;;;;4.07;1.40;;;;;;;10.48;100.00;99454.97;5305449;28;20040;-73
2023/11/10 11:16:55;;;;;;;6.20;1.23;;;;;;;10.47;100.00;99457.75;5263861;28;20043;-72
2023/11/10 11:19:36;;;;;;;4.72;1.85;;;;;;;10.38;100.00;99446.47;5311187;28;20028;-72
2023/11/10 11:22:08;;;;;;;4.68;1.38;;;;;;;10.25;100.00;99451.34;5308691;28;20047;-73
2023/11/10 11:24:44;;;;;;;3.83;1.38;;;;;;;10.22;100.00;99449.03;5309529;28;20031;-74
2023/11/10 11:27:24;;;;;;;4.72;1.30;;;;;;;10.41;100.00;99448.75;5305266;28;20039;-72
2023/11/10 11:29:56;;;;;;;3.38;1.17;;;;;;;10.34;100.00;99458.25;5310220;28;20393;-74
2023/11/10 11:32:32;;;;;;;2.72;0.90;;;;;;;10.36;100.00;99443.19;5311127;28;20027;-72
2023/11/10 11:35:04;;;;;;;3.88;1.10;;;;;;;10.42;100.00;99453.00;5314048;28;20382;-73
2023/11/10 11:37:37;;;;;;;4.03;1.00;;;;;;;10.39;100.00;99458.56;5333362;27;20027;-72
2023/11/10 11:40:11;;;;;;;4.10;1.10;;;;;;;10.42;100.00;99450.41;5334391;27;20023;-73
2023/11/10 11:42:42;;;;;;;5.07;1.20;;;;;;;10.45;100.00;99454.47;5337448;27;20121;-73
2023/11/10 11:45:15;;;;;;;3.85;1.00;;;;;;;10.37;100.00;99452.66;5335705;27;20032;-72
2023/11/10 11:47:49;;;;;;;2.83;0.95;;;;;;;10.53;100.00;99464.97;5311443;27;20039;-73
2023/11/10 11:50:22;;;;;;;3.83;1.50;;;;;;;10.44;100.00;99458.88;5334002;27;20404;-72
2023/11/10 11:52:53;;;;;;;4.20;1.27;;;;;;;10.35;100.00;99453.84;5333896;27;20054;-74
2023/11/10 11:55:25;;;;;;;3.92;1.10;;;;;;;10.39;100.00;99458.56;5332987;27;20043;-74
2023/11/10 11:57:58;;;;;;;3.53;0.88;;;;;;;10.42;100.00;99460.88;5332200;27;21273;-72
2023/11/10 12:00:31;;;;;;;2.83;1.00;;;;;;;10.41;100.00;99459.22;5332031;27;20117;-73